createdAt,value
2022-10-22T00:01:40.369Z,14.73
2022-10-22T00:04:12.044Z,14.70
2022-10-22T00:06:45.120Z,15.73
2022-10-22T00:09:17.197Z,16.48
2022-10-22T00:11:48.965Z,15.50
2022-10-22T00:14:20.792Z,16.23
2022-10-22T00:16:56.457Z,16.00
2022-10-22T00:19:28.406Z,15.88
2022-10-22T00:22:00.178Z,15.50
2022-10-22T00:24:35.675Z,16.90
2022-10-22T00:27:10.361Z,16.08
2022-10-22T00:32:15.436Z,16.10
2022-10-22T00:34:47.137Z,15.85
2022-10-22T00:37:18.853Z,17.08
2022-10-22T00:39:50.635Z,15.52
2022-10-22T00:42:25.006Z,16.45
2022-10-22T00:45:11.978Z,16.42
2022-10-22T00:47:51.140Z,16.42
2022-10-22T00:51:04.387Z,16.63
2022-10-22T00:53:45.888Z,16.85
2022-10-22T00:56:17.930Z,16.73
2022-10-22T00:58:55.591Z,17.20
2022-10-22T01:01:31.255Z,17.48
2022-10-22T01:04:03.009Z,17.70
2022-10-22T01:06:34.820Z,17.55
2022-10-22T01:09:12.323Z,18.35
2022-10-22T01:12:10.665Z,17.60
2022-10-22T01:15:02.492Z,17.17
2022-10-22T01:17:57.317Z,16.73
2022-10-22T01:20:57.241Z,17.50
2022-10-22T01:23:39.890Z,16.00
2022-10-22T01:26:30.101Z,17.05
2022-10-22T01:29:30.590Z,18.67
2022-10-22T01:32:08.245Z,19.02
2022-10-22T01:34:44.199Z,18.55
2022-10-22T01:37:18.718Z,19.25
2022-10-22T01:39:51.936Z,19.30
2022-10-22T01:42:26.951Z,18.75
2022-10-22T01:45:00.704Z,19.23
2022-10-22T01:47:35.378Z,19.27
2022-10-22T01:53:09.044Z,20.77
2022-10-22T01:55:59.205Z,20.48
2022-10-22T01:59:04.127Z,20.52
2022-10-22T02:01:48.495Z,21.83
2022-10-22T02:04:35.384Z,21.42
2022-10-22T02:07:11.458Z,19.17
2022-10-22T02:09:43.872Z,20.10
2022-10-22T02:12:21.641Z,19.48
2022-10-22T02:14:55.674Z,20.00
2022-10-22T02:17:31.598Z,20.35
2022-10-22T02:20:12.927Z,18.35
2022-10-22T02:22:45.294Z,19.85
2022-10-22T02:25:17.312Z,19.30
2022-10-22T02:27:54.375Z,25.27
2022-10-22T02:30:26.458Z,23.13
2022-10-22T02:33:10.056Z,26.23
2022-10-22T02:35:46.662Z,26.52
2022-10-22T02:40:50.896Z,25.88
2022-10-22T02:43:25.510Z,23.13
2022-10-22T02:45:57.437Z,20.50
2022-10-22T02:48:29.368Z,22.75
2022-10-22T02:51:03.976Z,22.75
2022-10-22T02:53:35.754Z,23.13
2022-10-22T02:56:07.671Z,24.42
2022-10-22T02:58:39.437Z,23.50
2022-10-22T03:01:16.096Z,21.65
2022-10-22T03:03:48.179Z,26.10
2022-10-22T03:06:20.050Z,27.35
2022-10-22T03:08:51.890Z,26.70
2022-10-22T03:11:23.682Z,21.88
2022-10-22T03:13:55.448Z,20.55
2022-10-22T03:16:30.322Z,20.63
2022-10-22T03:19:04.626Z,19.25
2022-10-22T03:21:44.590Z,20.17
2022-10-22T03:24:58.120Z,20.70
2022-10-22T03:27:30.311Z,20.58
2022-10-22T03:30:05.882Z,21.80
2022-10-22T03:32:37.625Z,20.80
2022-10-22T03:35:09.597Z,21.95
2022-10-22T03:37:41.481Z,22.15
2022-10-22T03:40:17.044Z,19.75
2022-10-22T03:42:51.823Z,21.23
2022-10-22T03:47:55.150Z,19.30
2022-10-22T03:50:26.875Z,21.15
2022-10-22T03:52:58.708Z,20.77
2022-10-22T03:55:33.456Z,20.02
2022-10-22T04:00:38.657Z,20.17
2022-10-22T04:03:10.479Z,24.98
2022-10-22T04:05:42.152Z,22.38
2022-10-22T04:08:16.907Z,22.02
2022-10-22T04:10:52.335Z,22.02
2022-10-22T04:13:24.504Z,20.40
2022-10-22T04:15:57.632Z,19.55
2022-10-22T04:18:29.366Z,20.48
2022-10-22T04:21:01.073Z,20.30
2022-10-22T04:23:33.045Z,21.23
2022-10-22T04:26:07.933Z,21.20
2022-10-22T04:28:39.539Z,19.73
2022-10-22T04:31:14.522Z,18.70
2022-10-22T04:33:49.987Z,19.38
2022-10-22T04:36:23.035Z,19.42
2022-10-22T04:39:07.476Z,19.13
2022-10-22T04:41:39.509Z,19.42
2022-10-22T04:44:13.791Z,23.20
2022-10-22T04:46:48.550Z,26.77
2022-10-22T04:49:20.332Z,24.38
2022-10-22T04:51:52.122Z,22.92
2022-10-22T04:54:26.620Z,22.00
2022-10-22T04:57:00.599Z,21.00
2022-10-22T04:59:32.826Z,20.33
2022-10-22T05:02:04.587Z,20.80
2022-10-22T05:04:36.280Z,21.77
2022-10-22T05:07:11.055Z,21.85
2022-10-22T05:09:45.796Z,21.98
2022-10-22T05:14:49.018Z,20.63
2022-10-22T05:17:20.805Z,19.83
2022-10-22T05:19:55.510Z,19.05
2022-10-22T05:24:58.807Z,20.08
2022-10-22T05:27:30.546Z,19.98
2022-10-22T05:30:02.251Z,19.75
2022-10-22T05:32:35.396Z,20.23
2022-10-22T05:35:07.347Z,20.40
2022-10-22T05:37:42.313Z,21.10
2022-10-22T05:40:26.906Z,21.30
2022-10-22T05:43:03.820Z,21.08
2022-10-22T05:45:42.944Z,20.00
2022-10-22T05:48:14.995Z,21.10
2022-10-22T05:50:50.845Z,21.98
2022-10-22T05:53:25.472Z,20.88
2022-10-22T05:56:00.728Z,19.95
2022-10-22T05:58:38.725Z,19.83
2022-10-22T06:01:24.078Z,19.75
2022-10-22T06:04:03.837Z,19.02
2022-10-22T06:06:39.579Z,20.90
2022-10-22T06:09:20.119Z,20.42
2022-10-22T06:11:53.527Z,19.70
2022-10-22T06:14:28.652Z,20.23
2022-10-22T06:17:01.830Z,19.98
2022-10-22T06:19:33.645Z,19.27
2022-10-22T06:22:05.724Z,19.83
2022-10-22T06:24:40.426Z,17.80
2022-10-22T06:27:14.573Z,18.88
2022-10-22T06:29:46.269Z,17.45
2022-10-22T06:32:18.204Z,18.55
2022-10-22T06:34:50.908Z,19.13
2022-10-22T06:37:22.578Z,18.13
2022-10-22T06:39:54.647Z,17.65
2022-10-22T06:42:30.669Z,18.23
2022-10-22T06:45:04.908Z,18.40
2022-10-22T06:47:36.536Z,18.20
2022-10-22T06:50:09.745Z,17.55
2022-10-22T06:52:42.486Z,18.35
2022-10-22T06:55:14.315Z,17.77
2022-10-22T06:57:46.012Z,18.20
2022-10-22T07:00:17.956Z,18.25
2022-10-22T07:02:56.506Z,18.90
2022-10-22T07:05:33.522Z,18.08
2022-10-22T07:08:11.171Z,18.85
2022-10-22T07:10:42.976Z,19.30
2022-10-22T07:13:21.853Z,18.65
2022-10-22T07:16:00.250Z,17.95
2022-10-22T07:18:32.565Z,18.40
2022-10-22T07:21:05.633Z,19.20
2022-10-22T07:23:38.105Z,18.42
2022-10-22T07:26:15.788Z,19.25
2022-10-22T07:28:50.135Z,18.15
2022-10-22T07:31:21.860Z,18.17
2022-10-22T07:33:54.279Z,19.95
2022-10-22T07:36:26.052Z,18.83
2022-10-22T07:38:59.259Z,18.58
2022-10-22T07:41:31.344Z,17.95
2022-10-22T07:44:03.027Z,18.92
2022-10-22T07:46:35.817Z,19.60
2022-10-22T07:49:13.546Z,19.00
2022-10-22T07:51:47.874Z,18.73
2022-10-22T07:54:19.487Z,19.42
2022-10-22T07:56:51.231Z,19.67
2022-10-22T07:59:23.286Z,18.67
2022-10-22T08:01:54.965Z,18.83
2022-10-22T08:04:26.804Z,18.80
2022-10-22T08:06:58.781Z,18.33
2022-10-22T08:09:30.621Z,18.02
2022-10-22T08:12:02.388Z,18.85
2022-10-22T08:14:35.642Z,20.05
2022-10-22T08:17:07.348Z,19.02
2022-10-22T08:19:40.295Z,18.98
2022-10-22T08:22:11.986Z,18.33
2022-10-22T08:24:43.823Z,19.02
2022-10-22T08:27:19.508Z,18.40
2022-10-22T08:29:53.686Z,17.33
2022-10-22T08:34:59.357Z,19.20
2022-10-22T08:37:31.102Z,18.02
2022-10-22T08:40:04.678Z,18.00
2022-10-22T08:42:38.769Z,19.25
2022-10-22T08:45:41.377Z,19.30
2022-10-22T08:48:34.199Z,19.75
2022-10-22T08:51:06.078Z,18.42
2022-10-22T08:53:45.584Z,18.80
2022-10-22T08:56:17.273Z,19.75
2022-10-22T08:59:16.305Z,19.17
2022-10-22T09:01:51.400Z,20.48
2022-10-22T09:04:33.831Z,20.05
2022-10-22T09:07:10.453Z,18.52
2022-10-22T09:09:49.207Z,19.33
2022-10-22T09:12:27.110Z,18.83
2022-10-22T09:14:59.428Z,20.50
2022-10-22T09:17:44.653Z,19.50
2022-10-22T09:20:40.238Z,19.23
2022-10-22T09:23:30.492Z,18.98
2022-10-22T09:26:02.839Z,18.77
2022-10-22T09:28:37.055Z,17.67
2022-10-22T09:31:13.567Z,17.25
2022-10-22T09:33:49.140Z,18.23
2022-10-22T09:36:23.912Z,17.80
2022-10-22T09:39:02.221Z,18.08
2022-10-22T09:41:34.256Z,17.67
2022-10-22T09:44:10.302Z,17.20
2022-10-22T09:46:48.148Z,17.45
2022-10-22T09:49:23.205Z,18.50
2022-10-22T09:52:03.186Z,17.67
2022-10-22T09:54:41.825Z,17.90
2022-10-22T09:57:22.500Z,18.30
2022-10-22T09:59:57.525Z,17.42
2022-10-22T10:02:44.713Z,17.33
2022-10-22T10:05:25.450Z,16.75
2022-10-22T10:07:58.413Z,16.60
2022-10-22T10:10:43.728Z,16.85
2022-10-22T10:13:43.860Z,17.20
2022-10-22T10:16:41.608Z,15.52
2022-10-22T10:19:29.015Z,15.93
2022-10-22T10:22:25.155Z,16.98
2022-10-22T10:25:29.531Z,16.13
2022-10-22T10:28:42.716Z,15.02
2022-10-22T10:31:42.309Z,14.65
2022-10-22T10:34:35.375Z,14.95
2022-10-22T10:37:18.564Z,14.68
2022-10-22T10:40:14.380Z,15.20
2022-10-22T10:42:55.908Z,15.68
2022-10-22T10:45:30.504Z,15.38
2022-10-22T10:48:27.743Z,14.82
2022-10-22T10:51:21.391Z,17.05
2022-10-22T10:54:33.105Z,15.55
2022-10-22T10:57:13.625Z,15.23
2022-10-22T11:00:03.435Z,15.05
2022-10-22T11:03:05.543Z,15.02
2022-10-22T11:05:59.458Z,13.48
2022-10-22T11:08:36.398Z,15.38
2022-10-22T11:11:30.271Z,14.48
2022-10-22T11:14:07.760Z,14.52
2022-10-22T11:16:46.749Z,13.70
2022-10-22T11:19:51.062Z,13.05
2022-10-22T11:22:26.609Z,12.87
2022-10-22T11:25:13.556Z,10.27
2022-10-22T11:28:11.573Z,9.45
2022-10-22T11:30:48.947Z,7.28
2022-10-22T11:33:26.641Z,6.53
2022-10-22T11:36:00.080Z,5.95
2022-10-22T11:38:36.545Z,6.13
2022-10-22T11:41:15.656Z,5.40
2022-10-22T11:43:56.526Z,4.90
2022-10-22T11:46:44.497Z,4.25
2022-10-22T11:49:20.693Z,4.53
2022-10-22T11:52:07.856Z,4.25
2022-10-22T11:54:44.969Z,4.55
2022-10-22T11:57:16.642Z,4.30
2022-10-22T11:59:52.978Z,4.88
2022-10-22T12:02:41.105Z,4.43
2022-10-22T12:05:22.153Z,4.13
2022-10-22T12:08:03.773Z,4.10
2022-10-22T12:10:59.418Z,3.65
2022-10-22T12:14:09.658Z,3.20
2022-10-22T12:16:55.834Z,3.63
2022-10-22T12:19:36.908Z,3.20
2022-10-22T12:22:16.904Z,3.45
2022-10-22T12:24:57.730Z,3.42
2022-10-22T12:27:41.576Z,3.45
2022-10-22T12:30:22.413Z,3.00
2022-10-22T12:32:56.952Z,2.80
2022-10-22T12:35:41.996Z,2.65
2022-10-22T12:38:21.664Z,2.55
2022-10-22T12:40:56.939Z,3.85
2022-10-22T12:43:33.597Z,3.28
2022-10-22T12:46:13.651Z,2.90
2022-10-22T12:48:46.136Z,2.63
2022-10-22T12:51:20.424Z,3.30
2022-10-22T12:53:54.792Z,2.65
2022-10-22T12:56:33.280Z,2.78
2022-10-22T12:59:18.348Z,2.58
2022-10-22T13:01:51.968Z,2.45
2022-10-22T13:04:26.963Z,3.08
2022-10-22T13:07:10.259Z,2.13
2022-10-22T13:10:01.456Z,2.17
2022-10-22T13:12:37.102Z,1.90
2022-10-22T13:15:27.544Z,2.22
2022-10-22T13:18:21.483Z,2.05
2022-10-22T13:21:03.141Z,2.00
2022-10-22T13:23:35.173Z,2.25
2022-10-22T13:26:20.672Z,1.90
2022-10-22T13:28:54.753Z,2.00
2022-10-22T13:31:29.521Z,2.20
2022-10-22T13:34:11.679Z,1.88
2022-10-22T13:36:45.323Z,2.00
2022-10-22T13:39:19.037Z,1.70
2022-10-22T13:41:51.988Z,1.77
2022-10-22T13:44:23.727Z,2.22
2022-10-22T13:46:56.301Z,2.08
2022-10-22T13:49:28.039Z,1.95
2022-10-22T13:52:01.146Z,1.60
2022-10-22T13:54:37.870Z,1.80
2022-10-22T13:57:10.695Z,1.65
2022-10-22T13:59:42.483Z,1.92
2022-10-22T14:02:14.463Z,1.48
2022-10-22T14:04:50.819Z,1.60
2022-10-22T14:07:22.509Z,1.52
2022-10-22T14:09:54.167Z,1.98
2022-10-22T14:12:25.858Z,2.20
2022-10-22T14:17:34.110Z,1.88
2022-10-22T14:20:06.360Z,2.08
2022-10-22T14:22:46.557Z,1.85
2022-10-22T14:25:24.794Z,1.80
2022-10-22T14:27:57.070Z,1.77
2022-10-22T14:30:30.352Z,2.00
2022-10-22T14:33:32.135Z,2.10
2022-10-22T14:36:10.255Z,2.00
2022-10-22T14:38:48.614Z,2.10
2022-10-22T14:41:25.595Z,2.53
2022-10-22T14:44:01.010Z,2.10
2022-10-22T14:46:36.108Z,2.00
2022-10-22T14:51:48.141Z,2.20
2022-10-22T14:54:20.063Z,2.05
2022-10-22T14:56:56.505Z,2.05
2022-10-22T14:59:29.330Z,2.13
2022-10-22T15:02:01.241Z,2.30
2022-10-22T15:04:33.088Z,1.85
2022-10-22T15:07:05.474Z,2.38
2022-10-22T15:09:40.250Z,1.98
2022-10-22T15:12:11.988Z,2.00
2022-10-22T15:14:46.540Z,2.72
2022-10-22T15:19:50.233Z,2.15
2022-10-22T15:22:24.489Z,2.35
2022-10-22T15:25:00.641Z,2.50
2022-10-22T15:27:32.456Z,2.20
2022-10-22T15:30:07.890Z,2.50
2022-10-22T15:32:40.618Z,2.10
2022-10-22T15:35:14.955Z,2.13
2022-10-22T15:37:46.769Z,2.10
2022-10-22T15:40:18.423Z,2.22
2022-10-22T15:42:50.099Z,2.83
2022-10-22T15:45:22.528Z,2.20
2022-10-22T15:47:54.324Z,2.60
2022-10-22T15:50:28.567Z,2.60
2022-10-22T15:53:00.259Z,2.83
2022-10-22T15:55:32.055Z,2.10
2022-10-22T15:58:04.348Z,2.90
2022-10-22T16:00:36.350Z,2.95
2022-10-22T16:03:10.949Z,2.88
2022-10-22T16:08:30.279Z,3.15
2022-10-22T16:11:02.132Z,3.00
2022-10-22T16:13:36.291Z,2.97
2022-10-22T16:16:08.666Z,3.45
2022-10-22T16:18:40.817Z,3.67
2022-10-22T16:21:14.561Z,3.65
2022-10-22T16:23:47.293Z,3.45
2022-10-22T16:26:20.150Z,3.13
2022-10-22T16:28:52.011Z,4.22
2022-10-22T16:31:24.159Z,4.38
2022-10-22T16:33:56.271Z,4.20
2022-10-22T16:36:32.173Z,4.20
2022-10-22T16:39:04.884Z,4.30
2022-10-22T16:41:37.518Z,4.55
2022-10-22T16:44:12.324Z,4.72
2022-10-22T16:46:44.075Z,4.95
2022-10-22T16:49:16.057Z,5.35
2022-10-22T16:51:47.818Z,6.13
2022-10-22T16:54:21.794Z,5.20
2022-10-22T16:56:53.517Z,5.60
2022-10-22T16:59:25.371Z,5.30
2022-10-22T17:01:57.457Z,5.00
2022-10-22T17:04:29.337Z,4.70
2022-10-22T17:07:01.164Z,4.15
2022-10-22T17:09:32.817Z,5.70
2022-10-22T17:12:04.643Z,5.43
2022-10-22T17:14:45.479Z,5.00
2022-10-22T17:17:20.232Z,4.93
2022-10-22T17:19:52.605Z,5.10
2022-10-22T17:22:27.497Z,5.95
2022-10-22T17:25:11.730Z,5.35
2022-10-22T17:27:44.492Z,4.28
2022-10-22T17:30:23.258Z,4.93
2022-10-22T17:33:01.240Z,4.80
2022-10-22T17:35:39.670Z,5.00
2022-10-22T17:38:13.258Z,4.53
2022-10-22T17:40:47.535Z,5.00
2022-10-22T17:43:24.365Z,5.10
2022-10-22T17:46:08.148Z,5.88
2022-10-22T17:48:40.241Z,5.43
2022-10-22T17:51:13.762Z,5.43
2022-10-22T17:53:46.330Z,5.15
2022-10-22T17:56:23.941Z,5.32
2022-10-22T17:58:55.973Z,5.90
2022-10-22T18:01:30.958Z,5.45
2022-10-22T18:04:06.185Z,5.88
2022-10-22T18:06:41.136Z,5.50
2022-10-22T18:09:18.745Z,5.82
2022-10-22T18:11:53.233Z,6.40
2022-10-22T18:14:25.097Z,6.13
2022-10-22T18:16:58.930Z,6.43
2022-10-22T18:19:31.099Z,6.68
2022-10-22T18:22:02.891Z,5.80
2022-10-22T18:24:41.570Z,6.38
2022-10-22T18:27:13.235Z,6.78
2022-10-22T18:29:51.399Z,6.17
2022-10-22T18:32:23.116Z,6.78
2022-10-22T18:34:54.770Z,6.63
2022-10-22T18:37:26.504Z,6.30
2022-10-22T18:39:58.951Z,7.03
2022-10-22T18:42:32.962Z,7.35
2022-10-22T18:45:09.143Z,7.72
2022-10-22T18:47:41.756Z,6.27
2022-10-22T18:50:14.699Z,6.45
2022-10-22T18:55:19.548Z,6.95
2022-10-22T18:57:51.412Z,6.60
2022-10-22T19:00:23.128Z,6.38
2022-10-22T19:02:55.055Z,5.85
2022-10-22T19:05:26.703Z,5.93
2022-10-22T19:07:59.405Z,7.53
2022-10-22T19:10:31.102Z,6.75
2022-10-22T19:13:02.861Z,6.50
2022-10-22T19:15:34.563Z,6.50
2022-10-22T19:18:06.212Z,6.50
2022-10-22T19:20:38.941Z,6.30
2022-10-22T19:23:10.575Z,5.88
2022-10-22T19:25:43.861Z,6.25
2022-10-22T19:28:15.500Z,5.93
2022-10-22T19:30:47.141Z,6.47
2022-10-22T19:33:19.152Z,6.40
2022-10-22T19:35:51.490Z,6.95
2022-10-22T19:38:27.729Z,8.35
2022-10-22T19:40:59.506Z,7.75
2022-10-22T19:43:31.240Z,7.57
2022-10-22T19:46:05.049Z,7.38
2022-10-22T19:48:38.026Z,7.80
2022-10-22T19:51:16.395Z,7.90
2022-10-22T19:53:56.358Z,7.00
2022-10-22T19:56:29.247Z,7.88
2022-10-22T19:59:06.570Z,7.82
2022-10-22T20:01:38.707Z,8.38
2022-10-22T20:04:15.120Z,7.72
2022-10-22T20:06:46.988Z,7.53
2022-10-22T20:09:21.623Z,7.78
2022-10-22T20:14:24.980Z,8.50
2022-10-22T20:16:56.648Z,8.35
2022-10-22T20:19:29.350Z,7.35
2022-10-22T20:22:01.558Z,7.38
2022-10-22T20:24:33.827Z,8.00
2022-10-22T20:27:05.895Z,7.90
2022-10-22T20:29:40.366Z,8.02
2022-10-22T20:32:14.532Z,8.43
2022-10-22T20:34:46.296Z,8.90
2022-10-22T20:37:20.521Z,8.13
2022-10-22T20:39:52.225Z,7.95
2022-10-22T20:42:24.619Z,8.85
2022-10-22T20:44:56.697Z,7.72
2022-10-22T20:47:39.211Z,8.50
2022-10-22T20:50:21.536Z,10.07
2022-10-22T20:52:53.997Z,8.85
2022-10-22T20:55:26.489Z,11.48
2022-10-22T20:58:01.135Z,9.00
2022-10-22T21:03:07.606Z,8.57
2022-10-22T21:05:39.385Z,8.73
2022-10-22T21:08:17.263Z,9.02
2022-10-22T21:10:50.474Z,8.23
2022-10-22T21:13:22.201Z,8.32
2022-10-22T21:15:56.608Z,8.52
2022-10-22T21:18:28.292Z,8.90
2022-10-22T21:21:00.357Z,8.52
2022-10-22T21:23:35.747Z,7.95
2022-10-22T21:26:07.442Z,7.97
2022-10-22T21:28:39.824Z,8.70
2022-10-22T21:31:18.786Z,7.53
2022-10-22T21:33:50.711Z,7.90
2022-10-22T21:36:23.472Z,7.47
2022-10-22T21:38:56.363Z,7.13
2022-10-22T21:41:31.488Z,8.13
2022-10-22T21:44:03.460Z,7.90
2022-10-22T21:46:35.458Z,7.78
2022-10-22T21:49:08.500Z,8.23
2022-10-22T21:51:40.478Z,8.77
2022-10-22T21:54:15.413Z,8.02
2022-10-22T21:56:47.791Z,8.88
2022-10-22T21:59:19.719Z,8.25
2022-10-22T22:01:51.426Z,8.60
2022-10-22T22:04:23.088Z,9.13
2022-10-22T22:06:57.595Z,8.60
2022-10-22T22:09:29.235Z,9.40
2022-10-22T22:12:01.211Z,8.45
2022-10-22T22:14:32.902Z,8.57
2022-10-22T22:17:07.801Z,9.93
2022-10-22T22:19:39.477Z,8.52
2022-10-22T22:22:11.316Z,9.32
2022-10-22T22:24:43.761Z,9.80
2022-10-22T22:27:17.416Z,10.27
2022-10-22T22:29:49.257Z,9.23
2022-10-22T22:32:21.007Z,9.88
2022-10-22T22:34:52.718Z,9.63
2022-10-22T22:37:24.518Z,10.25
2022-10-22T22:40:02.546Z,9.77
2022-10-22T22:42:34.525Z,9.98
2022-10-22T22:45:06.555Z,10.50
2022-10-22T22:47:38.874Z,10.77
2022-10-22T22:50:10.929Z,10.30
2022-10-22T22:52:42.756Z,10.63
2022-10-22T22:55:17.986Z,9.75
2022-10-22T22:57:50.417Z,10.27
2022-10-22T23:00:22.648Z,10.68
2022-10-22T23:02:56.158Z,11.13
2022-10-22T23:05:30.972Z,11.57
2022-10-22T23:08:03.179Z,10.43
2022-10-22T23:10:37.870Z,9.15
2022-10-22T23:13:09.776Z,10.25
2022-10-22T23:15:41.454Z,10.25
2022-10-22T23:18:13.638Z,9.52
2022-10-22T23:20:45.347Z,10.23
2022-10-22T23:23:17.060Z,9.82
2022-10-22T23:25:48.912Z,8.85
2022-10-22T23:28:24.170Z,10.23
2022-10-22T23:30:57.524Z,10.15
2022-10-22T23:33:29.168Z,8.65
2022-10-22T23:36:02.286Z,8.82
2022-10-22T23:38:37.823Z,10.02
2022-10-22T23:41:12.337Z,8.88
2022-10-22T23:43:44.582Z,8.77
2022-10-22T23:46:19.251Z,8.55
2022-10-22T23:51:23.064Z,7.50
2022-10-22T23:53:56.987Z,8.50
2022-10-22T23:56:30.423Z,9.32
2022-10-22T23:59:03.924Z,8.00
